Time;durP1;ratioP1;P1;durP2;ratioP2;P2;SDS_P1;SDS_P2;PMS_P1;PMS_P2;Temp;Humidity;BMP_temperature;BMP_pressure;BME280_temperature;BME280_humidity;BME280_pressure;Samples;Min_cycle;Max_cycle;Signal;HPM_P1;HPM_P2
2022/11/16 00:01:06;;;;;;;6.95;5.75;;;10.70;99.90;;;;;;6136160;23;20052;-83
2022/11/16 00:03:32;;;;;;;6.55;5.78;;;10.60;99.90;;;;;;6160651;23;20044;-84
2022/11/16 00:06:00;;;;;;;10.38;7.03;;;10.50;99.90;;;;;;6135784;23;20060;-85
2022/11/16 00:08:39;;;;;;;7.25;5.85;;;10.60;99.90;;;;;;6160473;23;20056;-83
2022/11/16 00:11:06;;;;;;;8.68;6.00;;;;;;;;;;6136110;23;20044;-83
2022/11/16 00:13:33;;;;;;;13.57;6.60;;;10.70;99.90;;;;;;6135957;23;20467;-82
2022/11/16 00:15:59;;;;;;;8.13;6.82;;;;;;;;;;6160074;23;20025;-82
2022/11/16 00:18:25;;;;;;;12.63;6.95;;;;;;;;;;6135667;23;20021;-83
2022/11/16 00:20:51;;;;;;;10.15;7.72;;;;;;;;;;6135814;23;20072;-83
2022/11/16 00:23:17;;;;;;;7.65;6.88;;;;;;;;;;6160491;23;20028;-82
2022/11/16 00:25:43;;;;;;;11.43;7.22;;;;;;;;;;6161099;23;20020;-82
2022/11/16 00:28:09;;;;;;;9.40;6.75;;;10.60;99.90;;;;;;6161420;23;20023;-83
2022/11/16 00:30:38;;;;;;;9.13;7.15;;;;;;;;;;6135866;23;20102;-83
2022/11/16 00:33:05;;;;;;;10.82;8.43;;;;;;;;;;6135763;23;20418;-83
2022/11/16 00:35:31;;;;;;;9.35;7.03;;;;;;;;;;6135640;23;20021;-83
2022/11/16 00:37:57;;;;;;;9.13;8.00;;;;;;;;;;6135744;23;20075;-83
2022/11/16 00:40:23;;;;;;;9.30;7.65;;;;;;;;;;6160328;23;20024;-83
2022/11/16 00:42:49;;;;;;;12.52;8.70;;;;;;;;;;6160369;23;20096;-82
2022/11/16 00:45:15;;;;;;;10.65;8.60;;;;;;;;;;6135623;23;20025;-84
2022/11/16 00:47:41;;;;;;;9.75;8.02;;;;;;;;;;6136711;23;20454;-84
2022/11/16 00:50:08;;;;;;;11.80;8.13;;;;;;;;;;6135894;23;20063;-83
2022/11/16 00:52:34;;;;;;;13.07;8.95;;;;;;;;;;6135716;23;20021;-83
2022/11/16 00:55:00;;;;;;;9.40;7.45;;;;;;;;;;6161182;23;20378;-82
2022/11/16 00:57:26;;;;;;;13.07;8.38;;;;;;;;;;6160220;23;20029;-82
2022/11/16 00:59:52;;;;;;;9.45;7.50;;;;;;;;;;6160145;23;20018;-83
2022/11/16 01:02:18;;;;;;;11.10;7.30;;;;;;;;;;6135658;23;20346;-82
2022/11/16 01:04:44;;;;;;;11.35;9.15;;;;;;;;;;6159864;23;20025;-82
2022/11/16 01:07:10;;;;;;;11.02;8.43;;;;;;;;;;6135673;23;20063;-82
2022/11/16 01:09:36;;;;;;;9.43;7.90;;;;;;;;;;6135578;23;20052;-82
2022/11/16 01:12:08;;;;;;;11.63;9.02;;;;;;;;;;6135591;23;20021;-82
2022/11/16 01:14:34;;;;;;;15.95;9.15;;;;;;;;;;6136031;23;20324;-82
2022/11/16 01:17:00;;;;;;;12.82;8.73;;;;;;;;;;6159895;23;20034;-85
2022/11/16 01:19:27;;;;;;;11.23;8.95;;;;;;;;;;6159736;23;20021;-83
2022/11/16 01:21:53;;;;;;;12.27;9.63;;;;;;;;;;6159973;23;20024;-84
2022/11/16 01:24:19;;;;;;;17.08;8.85;;;;;;;;;;6159973;23;20513;-82
2022/11/16 01:26:45;;;;;;;12.23;9.20;;;;;;;;;;6135512;23;20017;-83
2022/11/16 01:29:11;;;;;;;13.40;9.52;;;;;;;;;;6160215;23;20050;-83
2022/11/16 01:31:37;;;;;;;13.77;9.13;;;;;;;;;;6159985;23;20024;-82
2022/11/16 01:34:03;;;;;;;10.50;9.05;;;;;;;;;;6135399;23;20021;-83
2022/11/16 01:36:29;;;;;;;12.73;9.23;;;;;;;;;;6159788;23;20048;-83
2022/11/16 01:38:55;;;;;;;13.93;9.75;;;;;;;;;;6135420;23;20021;-83
2022/11/16 01:41:23;;;;;;;11.48;8.60;;;11.00;99.90;;;;;;6159918;23;20020;-83
2022/11/16 01:44:02;;;;;;;10.90;8.98;;;10.80;99.90;;;;;;6135244;23;20401;-86
2022/11/16 01:46:30;;;;;;;11.73;9.35;;;10.90;99.90;;;;;;6160135;23;20100;-83
2022/11/16 01:49:13;;;;;;;13.40;9.85;;;10.80;99.90;;;;;;6135558;23;20032;-83
2022/11/16 01:51:43;;;;;;;13.77;8.80;;;11.00;99.90;;;;;;6159666;23;20048;-83
2022/11/16 01:54:11;;;;;;;13.30;9.02;;;10.80;99.90;;;;;;6159608;23;20049;-82
2022/11/16 01:56:38;;;;;;;15.00;9.05;;;10.90;99.90;;;;;;6159721;23;20021;-83
2022/11/16 01:59:05;;;;;;;14.50;9.25;;;;;;;;;;6159556;23;20024;-83
2022/11/16 02:01:31;;;;;;;13.15;10.07;;;;;;;;;;6134700;23;20079;-84
2022/11/16 02:03:57;;;;;;;15.32;7.78;;;;;;;;;;6135022;23;20021;-82
2022/11/16 02:06:31;;;;;;;11.52;9.13;;;;;;;;;;6159534;23;20021;-82
2022/11/16 02:11:51;;;;;;;11.63;9.05;;;;;;;;;;6159457;23;20021;-83
2022/11/16 02:14:40;;;;;;;12.07;9.05;;;10.80;99.90;;;;;;6134868;23;20017;-83
2022/11/16 02:17:16;;;;;;;11.90;8.70;;;11.00;99.90;;;;;;6159388;23;20029;-83
2022/11/16 02:19:59;;;;;;;11.40;8.63;;;10.80;99.90;;;;;;6134937;23;20439;-83
2022/11/16 02:22:56;;;;;;;15.10;9.25;;;11.00;99.90;;;;;;6159529;23;20374;-86
2022/11/16 02:25:37;;;;;;;13.88;9.02;;;11.10;99.90;;;;;;6159423;23;20017;-83
2022/11/16 02:28:30;;;;;;;11.20;9.07;;;10.90;99.90;;;;;;6159358;23;20033;-84
2022/11/16 02:31:00;;;;;;;8.98;7.43;;;10.70;99.90;;;;;;6134783;23;20025;-84
2022/11/16 02:33:34;;;;;;;11.27;8.55;;;10.80;99.90;;;;;;6134931;23;20105;-85
2022/11/16 02:36:04;;;;;;;9.98;7.90;;;11.00;99.90;;;;;;6135520;23;20028;-82
2022/11/16 02:38:31;;;;;;;13.18;8.30;;;;;;;;;;6160943;23;20013;-82
2022/11/16 02:41:21;;;;;;;9.40;7.85;;;11.00;99.90;;;;;;6166393;23;20044;-90
2022/11/16 02:43:51;;;;;;;11.93;8.25;;;10.90;99.90;;;;;;6136128;23;20027;-87
2022/11/16 02:46:28;;;;;;;11.05;8.18;;;10.90;99.90;;;;;;6134914;23;20104;-88
2022/11/16 02:48:57;;;;;;;11.73;7.00;;;;;;;;;;6159541;23;20350;-85
2022/11/16 02:51:26;;;;;;;9.27;6.65;;;11.00;99.90;;;;;;6160031;23;20025;-86
2022/11/16 02:54:10;;;;;;;11.05;8.20;;;;;;;;;;6159549;23;20020;-89
2022/11/16 02:56:51;;;;;;;;;;;10.90;99.90;;;;;;6135653;23;20059;-86
2022/11/16 02:59:17;;;;;;;10.43;7.30;;;;;;;;;;6135409;23;19923;-90
2022/11/16 03:01:47;;;;;;;8.95;6.43;;;;;;;;;;6135397;23;20017;-89
2022/11/16 03:04:23;;;;;;;8.82;7.55;;;;;;;;;;6159899;23;20068;-87
2022/11/16 03:06:50;;;;;;;10.38;7.35;;;11.10;99.90;;;;;;6135236;23;20060;-89
2022/11/16 03:09:28;;;;;;;8.65;7.55;;;11.00;99.90;;;;;;6159819;23;20057;-90
2022/11/16 03:12:01;;;;;;;8.50;7.53;;;;;;;;;;6135356;23;20025;-90
2022/11/16 03:14:39;;;;;;;9.32;8.00;;;;;;;;;;6159645;23;20049;-89
2022/11/16 03:17:10;;;;;;;10.45;7.30;;;11.00;99.90;;;;;;6135319;23;20025;-93
2022/11/16 03:19:42;;;;;;;13.95;8.18;;;11.00;99.90;;;;;;6134639;23;20347;-84
2022/11/16 03:22:21;;;;;;;12.93;6.88;;;10.90;99.90;;;;;;6134516;23;20021;-88
2022/11/16 03:24:47;;;;;;;10.02;7.20;;;;;;;;;;6134569;23;20049;-89
2022/11/16 03:27:13;;;;;;;13.57;6.93;;;;;;;;;;6134536;23;20029;-86
2022/11/16 03:30:13;;;;;;;8.77;7.07;;;11.10;99.90;;;;;;6136078;23;20513;-88
2022/11/16 03:32:45;;;;;;;8.80;7.05;;;;;;;;;;6161975;23;20485;-86
2022/11/16 03:35:23;;;;;;;7.43;6.43;;;;;;;;;;6136389;23;20328;-86
2022/11/16 03:37:50;;;;;;;9.88;7.45;;;;;;;;;;6136571;23;20021;-87
2022/11/16 03:40:18;;;;;;;9.48;7.60;;;11.00;99.90;;;;;;6160739;23;20023;-88
2022/11/16 03:42:45;;;;;;;12.95;7.57;;;11.10;99.90;;;;;;6160975;23;20454;-87
2022/11/16 03:45:12;;;;;;;11.20;8.23;;;;;;;;;;6160408;23;20017;-86
2022/11/16 03:47:40;;;;;;;11.98;8.20;;;;;;;;;;6136120;23;20462;-87
2022/11/16 03:50:06;;;;;;;11.95;7.90;;;;;;;;;;6136072;23;20100;-87
2022/11/16 03:52:33;;;;;;;8.60;7.38;;;;;;;;;;6135834;23;20024;-87
2022/11/16 03:54:59;;;;;;;11.13;8.15;;;;;;;;;;6160573;23;20021;-88
2022/11/16 03:57:25;;;;;;;10.02;7.60;;;;;;;;;;6160619;23;20025;-87
2022/11/16 03:59:51;;;;;;;10.45;8.13;;;;;;;;;;6136123;23;20027;-85
2022/11/16 04:02:17;;;;;;;9.15;7.40;;;;;;;;;;6160672;23;20022;-88
2022/11/16 04:24:29;;;;;;;11.00;7.40;;;;;;;;;;6015079;23;20031;-91
2022/11/16 04:29:44;;;;;;;9.20;7.47;;;;;;;;;;6015125;23;20102;-92
2022/11/16 04:37:49;;;;;;;11.15;7.00;;;;;;;;;;6021076;23;20030;-94
2022/11/16 04:40:16;;;;;;;8.25;6.90;;;;;;;;;;6000119;23;20027;-88
2022/11/16 04:42:42;;;;;;;9.10;7.32;;;;;;;;;;5996185;23;20057;-87
2022/11/16 04:47:53;;;;;;;9.25;7.30;;;11.10;99.90;;;;;;6135595;23;20017;-90
2022/11/16 04:50:19;;;;;;;10.77;7.78;;;;;;;;;;6132356;23;20053;-92
2022/11/16 04:52:45;;;;;;;9.25;7.38;;;;;;;;;;6131434;23;20481;-91
2022/11/16 04:55:11;;;;;;;10.73;7.97;;;;;;;;;;6131693;23;20395;-90
2022/11/16 04:57:38;;;;;;;9.20;7.45;;;;;;;;;;6130409;23;20026;-87
2022/11/16 05:00:05;;;;;;;11.43;8.90;;;;;;;;;;6130772;23;20025;-89
2022/11/16 05:02:31;;;;;;;11.18;8.50;;;;;;;;;;6130523;23;20028;-88
2022/11/16 05:04:57;;;;;;;10.95;9.07;;;;;;;;;;6130708;23;20022;-88
2022/11/16 05:07:23;;;;;;;12.13;9.02;;;;;;;;;;6130380;23;20028;-88
2022/11/16 05:09:49;;;;;;;10.50;8.25;;;;;;;;;;6130876;23;20080;-87
2022/11/16 05:12:26;;;;;;;12.52;8.30;;;11.00;99.90;;;;;;6130595;23;20064;-87
2022/11/16 05:14:53;;;;;;;11.80;8.38;;;;;;;;;;6130641;23;20026;-86
2022/11/16 05:17:19;;;;;;;12.38;9.32;;;;;;;;;;6130572;23;20053;-84
2022/11/16 05:22:30;;;;;;;11.15;8.02;;;;;;;;;;6160100;23;20028;-86
2022/11/16 05:24:57;;;;;;;10.40;8.43;;;;;;;;;;6135322;23;20013;-87
2022/11/16 05:27:23;;;;;;;15.07;8.95;;;;;;;;;;6159903;23;20120;-86
2022/11/16 05:29:49;;;;;;;12.75;8.95;;;;;;;;;;6159951;23;20056;-88
2022/11/16 05:32:16;;;;;;;9.73;7.95;;;;;;;;;;6136224;23;20064;-85
2022/11/16 05:34:42;;;;;;;12.38;7.55;;;;;;;;;;6135311;23;20396;-87
2022/11/16 05:37:08;;;;;;;9.93;8.32;;;;;;;;;;6135172;23;20032;-85
2022/11/16 05:39:34;;;;;;;8.38;7.07;;;;;;;;;;6135129;23;20021;-86
2022/11/16 05:42:01;;;;;;;8.20;7.35;;;;;;;;;;6136606;23;20047;-91
2022/11/16 05:44:27;;;;;;;11.15;7.05;;;;;;;;;;6136764;23;20492;-94
2022/11/16 05:46:54;;;;;;;9.32;7.13;;;;;;;;;;6135980;23;20103;-94
2022/11/16 05:49:20;;;;;;;8.73;7.28;;;;;;;;;;6136667;23;20021;-94
2022/11/16 05:51:49;;;;;;;11.70;7.53;;;;;;;;;;6163121;23;20061;-93
2022/11/16 05:54:19;;;;;;;10.52;7.63;;;;;;;;;;6140149;23;20021;-93
2022/11/16 05:56:46;;;;;;;9.63;7.60;;;;;;;;;;6143350;23;20454;-96
2022/11/16 05:59:13;;;;;;;9.00;6.80;;;;;;;;;;6139781;23;20462;-93
2022/11/16 06:01:40;;;;;;;9.40;7.03;;;;;;;;;;6142793;23;20025;-88
2022/11/16 06:04:06;;;;;;;9.15;7.38;;;;;;;;;;6151289;23;20025;-89
2022/11/16 06:06:32;;;;;;;10.18;7.10;;;;;;;;;;6148346;23;20043;-91
2022/11/16 06:08:58;;;;;;;12.25;8.05;;;;;;;;;;6147064;23;20025;-84
2022/11/16 06:11:24;;;;;;;9.40;7.75;;;;;;;;;;6151951;23;20029;-85
2022/11/16 06:13:50;;;;;;;10.65;8.30;;;;;;;;;;6177328;23;20024;-84
2022/11/16 06:16:17;;;;;;;10.20;8.25;;;;;;;;;;6179179;23;20025;-84
2022/11/16 06:18:44;;;;;;;10.40;7.90;;;11.00;99.90;;;;;;6175751;23;20121;-84
2022/11/16 06:21:11;;;;;;;10.93;9.05;;;;;;;;;;6179390;23;20025;-84
2022/11/16 06:23:37;;;;;;;16.58;7.95;;;;;;;;;;6134884;23;20116;-85
2022/11/16 06:26:04;;;;;;;14.55;9.43;;;;;;;;;;6134672;23;20068;-86
2022/11/16 06:28:30;;;;;;;13.35;9.52;;;;;;;;;;6134902;23;20028;-86
2022/11/16 06:30:57;;;;;;;16.77;9.38;;;;;;;;;;6134859;23;20027;-87
2022/11/16 06:33:23;;;;;;;11.85;9.98;;;;;;;;;;6160808;23;20021;-88
2022/11/16 06:35:49;;;;;;;13.95;9.48;;;;;;;;;;6134662;23;20056;-88
2022/11/16 06:38:18;;;;;;;13.60;9.50;;;;;;;;;;6134776;23;20021;-88
2022/11/16 06:40:51;;;;;;;13.07;8.63;;;10.90;99.90;;;;;;6134835;23;20104;-88
2022/11/16 06:43:18;;;;;;;12.00;9.38;;;;;;;;;;6135084;23;20474;-88
2022/11/16 06:45:51;;;;;;;11.20;9.10;;;11.00;99.90;;;;;;6134801;23;20490;-87
2022/11/16 06:48:17;;;;;;;14.85;9.63;;;;;;;;;;6159500;23;20351;-88
2022/11/16 06:50:44;;;;;;;11.98;9.98;;;;;;;;;;6135011;23;20034;-88
2022/11/16 06:53:10;;;;;;;11.80;9.70;;;;;;;;;;6160557;23;20100;-87
2022/11/16 06:55:36;;;;;;;12.95;9.35;;;;;;;;;;6136495;23;20081;-88
2022/11/16 06:58:02;;;;;;;10.15;9.15;;;;;;;;;;6137830;23;20021;-88
2022/11/16 07:00:28;;;;;;;11.30;10.20;;;;;;;;;;6135743;23;20020;-88
2022/11/16 07:02:54;;;;;;;12.93;9.88;;;;;;;;;;6160831;23;20032;-88
2022/11/16 07:05:20;;;;;;;12.63;10.02;;;;;;;;;;6136874;23;20017;-88
2022/11/16 07:07:46;;;;;;;12.30;9.57;;;;;;;;;;6161266;23;20032;-88
2022/11/16 07:10:13;;;;;;;15.38;10.05;;;;;;;;;;6161309;23;20032;-88
2022/11/16 07:12:39;;;;;;;11.98;9.73;;;;;;;;;;6161183;23;20013;-88
2022/11/16 07:15:05;;;;;;;13.07;10.68;;;;;;;;;;6136559;23;20481;-88
2022/11/16 07:17:32;;;;;;;12.48;9.95;;;11.10;99.90;;;;;;6136254;23;20021;-89
2022/11/16 07:19:58;;;;;;;12.82;10.27;;;;;;;;;;6136217;23;20083;-88
2022/11/16 07:22:24;;;;;;;14.15;9.57;;;;;;;;;;6136333;23;20017;-88
2022/11/16 07:24:50;;;;;;;13.25;9.95;;;;;;;;;;6160979;23;20048;-88
2022/11/16 07:27:16;;;;;;;12.45;9.82;;;;;;;;;;6136637;23;20021;-89
2022/11/16 07:29:42;;;;;;;13.45;10.15;;;;;;;;;;6161036;23;20017;-89
2022/11/16 07:32:08;;;;;;;10.73;8.70;;;;;;;;;;6137374;23;20050;-93
2022/11/16 07:34:34;;;;;;;11.45;7.65;;;;;;;;;;6165962;23;20029;-88
2022/11/16 07:37:03;;;;;;;9.40;7.68;;;;;;;;;;6137438;23;20067;-89
2022/11/16 07:39:29;;;;;;;8.15;6.45;;;;;;;;;;6137605;23;20017;-90
2022/11/16 07:41:55;;;;;;;7.97;7.18;;;;;;;;;;6141175;23;20123;-92
2022/11/16 07:44:21;;;;;;;6.72;5.97;;;;;;;;;;6164780;23;20029;-95
2022/11/16 07:46:48;;;;;;;7.35;5.30;;;;;;;;;;6142876;23;20127;-96
2022/11/16 07:49:15;;;;;;;7.30;5.47;;;;;;;;;;6136402;23;20604;-90
2022/11/16 07:51:44;;;;;;;7.07;5.68;;;;;;;;;;6136417;23;20017;-89
2022/11/16 07:54:14;;;;;;;7.07;6.00;;;;;;;;;;6138909;23;20025;-90
2022/11/16 07:56:40;;;;;;;8.30;6.00;;;;;;;;;;6135973;23;20032;-90
2022/11/16 07:59:07;;;;;;;6.63;5.82;;;;;;;;;;6136579;23;20025;-90
2022/11/16 08:01:33;;;;;;;7.78;6.78;;;;;;;;;;6160849;23;20070;-89
2022/11/16 08:04:00;;;;;;;9.13;6.53;;;;;;;;;;6136915;23;20028;-88
2022/11/16 08:06:27;;;;;;;9.18;6.43;;;;;;;;;;6136053;23;20025;-88
2022/11/16 08:08:53;;;;;;;8.27;7.07;;;;;;;;;;6160668;23;20032;-89
2022/11/16 08:11:19;;;;;;;7.50;6.75;;;;;;;;;;6136053;23;20115;-90
2022/11/16 08:13:45;;;;;;;9.45;7.32;;;;;;;;;;6137403;23;20025;-89
2022/11/16 08:16:19;;;;;;;14.13;7.85;;;;;;;;;;6135789;23;20088;-89
2022/11/16 08:18:45;;;;;;;10.13;7.22;;;;;;;;;;6135988;23;20076;-89
2022/11/16 08:21:13;;;;;;;10.80;7.40;;;;;;;;;;6135789;23;20067;-91
2022/11/16 08:23:39;;;;;;;8.05;7.25;;;;;;;;;;6136132;23;20414;-88
2022/11/16 08:26:08;;;;;;;8.70;7.72;;;;;;;;;;6135886;23;20079;-88
2022/11/16 08:28:34;;;;;;;9.68;7.15;;;;;;;;;;6136350;23;20485;-89
2022/11/16 08:31:06;;;;;;;8.30;7.03;;;;;;;;;;6135848;23;20032;-89
2022/11/16 08:33:32;;;;;;;11.00;8.07;;;;;;;;;;6138440;23;20148;-92
2022/11/16 08:36:03;;;;;;;8.25;7.25;;;;;;;;;;6136413;23;20021;-90
2022/11/16 08:38:29;;;;;;;10.18;8.15;;;;;;;;;;6135985;23;20024;-91
2022/11/16 08:40:55;;;;;;;12.35;8.35;;;;;;;;;;6137243;23;20100;-90
2022/11/16 08:43:21;;;;;;;8.48;7.22;;;;;;;;;;6137499;23;20327;-93
2022/11/16 08:45:48;;;;;;;11.02;7.88;;;;;;;;;;6135642;23;20021;-90
2022/11/16 08:48:14;;;;;;;12.40;8.45;;;;;;;;;;6161807;23;20060;-90
2022/11/16 08:50:40;;;;;;;11.05;7.78;;;;;;;;;;6161911;23;20021;-89
2022/11/16 08:53:06;;;;;;;9.82;7.88;;;;;;;;;;6159956;23;20071;-92
2022/11/16 08:55:32;;;;;;;11.80;8.15;;;;;;;;;;6136189;23;20025;-93
2022/11/16 08:57:58;;;;;;;8.95;6.78;;;;;;;;;;6135962;23;20028;-90
2022/11/16 09:00:25;;;;;;;10.80;7.78;;;;;;;;;;6143783;23;20443;-90
2022/11/16 09:02:51;;;;;;;9.15;7.75;;;;;;;;;;6163940;23;20028;-91
2022/11/16 09:05:33;;;;;;;8.77;7.68;;;;;;;;;;6164208;23;20020;-92
2022/11/16 09:07:59;;;;;;;8.88;7.18;;;;;;;;;;6171288;23;20021;-93
2022/11/16 09:10:25;;;;;;;10.90;7.00;;;;;;;;;;6166551;23;20462;-93
2022/11/16 09:12:51;;;;;;;12.45;7.65;;;;;;;;;;6166646;23;20103;-93
2022/11/16 09:15:18;;;;;;;8.80;7.40;;;;;;;;;;6168750;23;20023;-92
2022/11/16 09:17:44;;;;;;;10.75;7.82;;;;;;;;;;6191962;23;20070;-96
2022/11/16 09:20:10;;;;;;;10.95;7.03;;;;;;;;;;6183986;23;20024;-93
2022/11/16 09:22:37;;;;;;;13.00;8.18;;;;;;;;;;6164317;23;20078;-92
2022/11/16 09:25:03;;;;;;;9.13;7.55;;;;;;;;;;6162130;23;20024;-95
2022/11/16 09:27:29;;;;;;;8.75;7.25;;;;;;;;;;6139098;23;20454;-92
2022/11/16 09:29:55;;;;;;;8.73;7.82;;;;;;;;;;6146880;23;20056;-88
2022/11/16 09:32:21;;;;;;;10.45;7.85;;;;;;;;;;6137094;23;20017;-91
2022/11/16 09:34:47;;;;;;;9.35;7.57;;;;;;;;;;6137504;23;20032;-93
2022/11/16 09:37:14;;;;;;;9.00;7.20;;;;;;;;;;6161149;23;20028;-91
2022/11/16 09:39:40;;;;;;;10.25;7.97;;;;;;;;;;6137382;23;20183;-91
2022/11/16 09:42:15;;;;;;;8.90;7.25;;;;;;;;;;6142379;23;20029;-90
2022/11/16 09:45:03;;;;;;;12.15;7.85;;;;;;;;;;6185359;23;20096;-88
2022/11/16 09:47:39;;;;;;;11.10;7.85;;;;;;;;;;6135898;23;20075;-92
2022/11/16 09:50:06;;;;;;;9.85;7.57;;;;;;;;;;6188368;23;20063;-88
2022/11/16 09:52:32;;;;;;;10.52;8.35;;;;;;;;;;6141475;23;20024;-88
2022/11/16 10:03:42;;;;;;;12.15;8.00;;;;;;;;;;6227547;23;20075;-88
2022/11/16 10:06:16;;;;;;;12.93;8.68;;;;;;;;;;6184835;23;20021;-90
2022/11/16 10:08:55;;;;;;;9.75;8.32;;;;;;;;;;6180913;23;20021;-89
2022/11/16 10:11:24;;;;;;;13.13;8.75;;;;;;;;;;6171142;23;20485;-88
2022/11/16 10:14:00;;;;;;;13.40;7.78;;;;;;;;;;6174392;23;20065;-89
2022/11/16 10:16:45;;;;;;;12.48;8.40;;;;;;;;;;6178198;23;20362;-93
2022/11/16 10:19:29;;;;;;;11.07;7.85;;;;;;;;;;6205072;23;20027;-90
2022/11/16 10:22:07;;;;;;;13.25;9.57;;;;;;;;;;6160930;23;20029;-92
2022/11/16 10:24:52;;;;;;;15.30;8.93;;;;;;;;;;6181155;23;20021;-93
2022/11/16 10:27:43;;;;;;;14.20;9.45;;;;;;;;;;6156880;23;20032;-93
2022/11/16 10:33:14;;;;;;;15.02;10.10;;;;;;;;;;6203555;23;20047;-92
2022/11/16 10:38:39;;;;;;;13.40;10.18;;;;;;;;;;6232039;23;20041;-93
2022/11/16 10:41:27;;;;;;;15.95;9.48;;;;;;;;;;6033243;23;20023;-89
2022/11/16 10:46:46;;;;;;;14.75;10.15;;;;;;;;;;6256787;23;20070;-94
2022/11/16 10:49:21;;;;;;;14.57;8.85;;;;;;;;;;6211905;23;20024;-90
2022/11/16 10:52:08;;;;;;;13.25;9.88;;;;;;;;;;6210156;23;20465;-91
2022/11/16 10:54:38;;;;;;;16.38;9.85;;;;;;;;;;6224063;23;20020;-93
2022/11/16 10:57:13;;;;;;;11.45;9.27;;;;;;;;;;6200837;23;20516;-95
2022/11/16 10:59:47;;;;;;;15.65;9.02;;;;;;;;;;6200765;23;20024;-93
2022/11/16 11:02:20;;;;;;;10.30;7.90;;;;;;;;;;6199179;23;20304;-92
2022/11/16 11:05:00;;;;;;;21.52;9.90;;;;;;;;;;6224212;23;20109;-93
2022/11/16 11:07:38;;;;;;;12.25;8.25;;;;;;;;;;6199159;23;20077;-94
2022/11/16 11:10:10;;;;;;;13.00;8.13;;;;;;;;;;6197940;23;20396;-91
2022/11/16 11:12:37;;;;;;;12.25;7.47;;;;;;;;;;6162111;23;20081;-94
2022/11/16 11:15:03;;;;;;;11.25;8.10;;;;;;;;;;6162454;23;20064;-91
2022/11/16 11:17:32;;;;;;;12.57;7.13;;;;;;;;;;6138652;23;20052;-95
2022/11/16 11:20:19;;;;;;;15.70;7.70;;;;;;;;;;6167282;23;20080;-95
2022/11/16 11:22:54;;;;;;;12.85;8.05;;;;;;;;;;6118900;23;20091;-89
2022/11/16 11:25:31;;;;;;;8.82;6.45;;;;;;;;;;6166257;23;20032;-87
2022/11/16 11:28:05;;;;;;;13.95;6.97;;;;;;;;;;6190276;23;20025;-88
2022/11/16 11:30:37;;;;;;;11.27;6.95;;;;;;;;;;6171267;23;20025;-91
2022/11/16 11:33:09;;;;;;;14.43;6.80;;;;;;;;;;6147647;23;20024;-90
2022/11/16 11:35:57;;;;;;;8.27;6.43;;;;;;;;;;6174212;23;20021;-87
2022/11/16 11:38:33;;;;;;;15.05;7.20;;;;;;;;;;6201445;23;20052;-91
2022/11/16 11:41:08;;;;;;;10.82;6.15;;;;;;;;;;6192619;23;20020;-91
2022/11/16 11:43:36;;;;;;;13.98;6.72;;;;;;;;;;6192693;23;20099;-90
2022/11/16 11:46:21;;;;;;;;;;;12.00;99.90;;;;;;6179236;23;20028;-86
2022/11/16 11:48:53;;;;;;;11.27;6.25;;;;;;;;;;6170633;23;19916;-91
2022/11/16 11:51:39;;;;;;;10.00;6.68;;;;;;;;;;6169662;23;20016;-91
2022/11/16 11:54:07;;;;;;;9.63;6.40;;;;;;;;;;6169788;23;20039;-89
2022/11/16 11:56:33;;;;;;;12.77;6.32;;;;;;;;;;6169832;23;20027;-90
2022/11/16 11:58:59;;;;;;;12.23;6.63;;;;;;;;;;6202745;23;20036;-86
2022/11/16 12:01:48;;;;;;;14.82;6.03;;;;;;;;;;6177067;23;20446;-93
2022/11/16 12:04:23;;;;;;;10.20;6.38;;;;;;;;;;6195060;23;20095;-94
2022/11/16 12:06:52;;;;;;;10.65;5.93;;;;;;;;;;6170096;23;20020;-94
2022/11/16 12:09:34;;;;;;;8.85;5.60;;;;;;;;;;6171330;23;20021;-96
2022/11/16 12:12:19;;;;;;;6.63;5.90;;;;;;;;;;6171268;23;20331;-92
2022/11/16 12:14:48;;;;;;;9.13;5.53;;;;;;;;;;6198524;23;20028;-93
2022/11/16 12:17:32;;;;;;;8.65;5.13;;;;;;;;;;6176473;23;20020;-93
2022/11/16 12:20:22;;;;;;;8.82;4.57;;;;;;;;;;6153175;23;20028;-92
2022/11/16 12:22:54;;;;;;;7.22;5.20;;;;;;;;;;6033409;23;20034;-95
2022/11/16 12:25:23;;;;;;;12.77;4.70;;;;;;;;;;6037379;23;20047;-93
2022/11/16 12:28:08;;;;;;;11.50;5.32;;;;;;;;;;6059506;23;20034;-90
2022/11/16 12:30:53;;;;;;;9.07;5.43;;;;;;;;;;6057856;23;20460;-93
2022/11/16 12:33:28;;;;;;;11.07;4.45;;;;;;;;;;6058717;23;20019;-92
2022/11/16 12:36:12;;;;;;;7.18;3.28;;;;;;;;;;6062906;23;20081;-89
2022/11/16 12:38:51;;;;;;;6.15;3.25;;;;;;;;;;6043000;23;20037;-90
2022/11/16 12:41:39;;;;;;;11.98;3.58;;;12.60;99.90;;;;;;6056576;23;20086;-86
2022/11/16 12:44:10;;;;;;;7.22;3.50;;;;;;;;;;6053158;23;20031;-90
2022/11/16 12:46:39;;;;;;;5.80;3.28;;;;;;;;;;6005388;23;20086;-94
2022/11/16 12:49:17;;;;;;;5.97;2.80;;;;;;;;;;6026562;23;20071;-89
2022/11/16 12:51:49;;;;;;;8.40;3.90;;;;;;;;;;6061253;23;20029;-88
2022/11/16 12:54:17;;;;;;;9.32;2.92;;;;;;;;;;6064662;23;20133;-85
2022/11/16 12:57:14;;;;;;;11.30;3.85;;;12.40;99.90;;;;;;6029480;23;20142;-86
2022/11/16 12:59:59;;;;;;;4.55;2.85;;;;;;;;;;6102612;23;20473;-87
2022/11/16 13:02:44;;;;;;;15.68;3.33;;;;;;;;;;6139931;23;20028;-86
2022/11/16 13:05:28;;;;;;;4.45;2.25;;;;;;;;;;6178588;23;20044;-86
2022/11/16 13:08:07;;;;;;;6.93;3.15;;;;;;;;;;6166372;23;20460;-85
2022/11/16 13:10:37;;;;;;;20.90;2.97;;;;;;;;;;6196427;23;20020;-90
2022/11/16 13:13:09;;;;;;;10.60;3.30;;;;;;;;;;6171260;23;20075;-89
2022/11/16 13:15:37;;;;;;;7.95;2.65;;;;;;;;;;6190294;23;20098;-90
2022/11/16 13:18:04;;;;;;;7.03;2.47;;;;;;;;;;6188204;23;20023;-86
2022/11/16 13:20:31;;;;;;;8.25;2.63;;;;;;;;;;6186620;23;20027;-87
2022/11/16 13:22:58;;;;;;;3.15;2.13;;;;;;;;;;6135209;23;20021;-86
2022/11/16 13:25:26;;;;;;;5.85;2.90;;;;;;;;;;6136679;23;20021;-84
2022/11/16 13:27:55;;;;;;;5.32;2.40;;;;;;;;;;6135229;23;20530;-85
2022/11/16 13:30:22;;;;;;;9.15;2.90;;;;;;;;;;6159871;23;20080;-85
2022/11/16 13:32:51;;;;;;;5.05;2.42;;;;;;;;;;6159741;23;20063;-84
2022/11/16 13:35:19;;;;;;;10.23;3.28;;;;;;;;;;6134979;23;20017;-84
2022/11/16 13:37:50;;;;;;;6.32;2.63;;;;;;;;;;6136304;23;20473;-85
2022/11/16 13:40:20;;;;;;;9.38;3.00;;;;;;;;;;6186312;23;20052;-85
2022/11/16 13:43:15;;;;;;;18.95;3.22;;;12.50;99.90;;;;;;6187551;23;20131;-88
2022/11/16 13:45:44;;;;;;;7.47;3.33;;;;;;;;;;6162228;23;20079;-90
2022/11/16 13:48:15;;;;;;;4.90;2.30;;;;;;;;;;6164128;23;20049;-92
2022/11/16 13:50:46;;;;;;;8.25;2.42;;;;;;;;;;6142080;23;20057;-90
2022/11/16 13:53:14;;;;;;;5.57;2.95;;;;;;;;;;6167505;23;20346;-90
2022/11/16 13:55:43;;;;;;;6.78;2.50;;;;;;;;;;6145752;23;20048;-92
2022/11/16 13:58:11;;;;;;;6.50;2.70;;;;;;;;;;6136953;23;20021;-88
2022/11/16 14:00:40;;;;;;;10.98;3.75;;;;;;;;;;6160259;23;20044;-90
2022/11/16 14:03:09;;;;;;;6.80;3.30;;;;;;;;;;6162147;23;20028;-94
2022/11/16 14:05:41;;;;;;;9.75;2.95;;;;;;;;;;6138857;23;20392;-88
2022/11/16 14:08:19;;;;;;;5.40;2.45;;;;;;;;;;6161602;23;20017;-91
2022/11/16 14:10:51;;;;;;;10.20;2.50;;;;;;;;;;6167627;23;20481;-89
2022/11/16 14:13:32;;;;;;;11.07;2.85;;;;;;;;;;6144165;23;20025;-92
2022/11/16 14:16:16;;;;;;;6.63;3.53;;;;;;;;;;6142402;23;20048;-89
2022/11/16 14:18:44;;;;;;;9.80;3.30;;;;;;;;;;6138390;23;20021;-86
2022/11/16 14:21:16;;;;;;;8.50;2.92;;;;;;;;;;6134188;23;20028;-86
2022/11/16 14:23:57;;;;;;;10.48;3.10;;;;;;;;;;6136256;23;20025;-86
2022/11/16 14:26:45;;;;;;;8.05;3.00;;;12.10;99.90;;;;;;6134426;23;20021;-86
2022/11/16 14:29:24;;;;;;;10.98;2.58;;;;;;;;;;6134716;23;20390;-87
2022/11/16 14:31:53;;;;;;;4.78;2.60;;;11.90;99.90;;;;;;6134826;23;20076;-86
2022/11/16 14:34:21;;;;;;;8.25;3.20;;;;;;;;;;6134777;23;20025;-86
2022/11/16 14:36:49;;;;;;;8.82;2.38;;;;;;;;;;6134662;23;20021;-86
2022/11/16 14:39:33;;;;;;;7.07;2.50;;;;;;;;;;6134652;23;20390;-86
2022/11/16 14:42:06;;;;;;;8.95;3.47;;;;;;;;;;6134154;23;20028;-86
2022/11/16 14:47:04;;;;;;;6.90;2.50;;;;;;;;;;6216031;23;20082;-86
2022/11/16 14:49:32;;;;;;;7.15;2.90;;;;;;;;;;6193945;23;20024;-85
2022/11/16 14:52:00;;;;;;;9.98;3.60;;;;;;;;;;6194774;23;20504;-85
2022/11/16 14:54:33;;;;;;;9.48;3.17;;;;;;;;;;6194135;23;20024;-85
2022/11/16 14:57:04;;;;;;;5.40;2.43;;;;;;;;;;6219103;23;20080;-86
2022/11/16 14:59:31;;;;;;;11.18;2.95;;;;;;;;;;6219188;23;20279;-86
2022/11/16 15:02:20;;;;;;;5.13;3.03;;;;;;;;;;6194129;23;20028;-85
2022/11/16 15:04:47;;;;;;;13.20;3.10;;;;;;;;;;6245887;23;20055;-86
2022/11/16 15:07:15;;;;;;;5.65;2.60;;;;;;;;;;6251029;23;20090;-88
2022/11/16 15:09:44;;;;;;;6.95;2.40;;;;;;;;;;6248430;23;20021;-89
2022/11/16 15:15:07;;;;;;;15.25;3.40;;;;;;;;;;6247126;23;20038;-96
2022/11/16 15:17:34;;;;;;;14.35;2.55;;;;;;;;;;6197337;23;20027;-96
2022/11/16 15:20:14;;;;;;;6.60;2.80;;;;;;;;;;6166723;23;20099;-91
2022/11/16 15:22:41;;;;;;;7.85;2.97;;;;;;;;;;6170328;23;20100;-90
2022/11/16 15:25:23;;;;;;;8.00;2.80;;;;;;;;;;6219137;23;20048;-91
2022/11/16 15:27:49;;;;;;;7.90;3.35;;;;;;;;;;6222459;23;20067;-88
2022/11/16 15:30:29;;;;;;;6.70;2.88;;;;;;;;;;6170446;23;20458;-93
2022/11/16 15:32:56;;;;;;;3.92;2.40;;;;;;;;;;6196546;23;20034;-91
2022/11/16 15:35:23;;;;;;;13.80;2.83;;;;;;;;;;6222115;23;20024;-87
2022/11/16 15:38:19;;;;;;;10.38;2.95;;;10.90;99.90;;;;;;6196005;23;20024;-89